createdAt,value
2022-08-07T00:00:40.046Z,2.08
2022-08-07T00:03:07.324Z,2.00
2022-08-07T00:05:36.246Z,2.53
2022-08-07T00:08:05.673Z,1.45
2022-08-07T00:10:34.826Z,2.90
2022-08-07T00:13:23.549Z,2.47
2022-08-07T00:15:51.717Z,1.92
2022-08-07T00:18:23.925Z,2.30
2022-08-07T00:20:54.594Z,2.50
2022-08-07T00:23:21.844Z,2.25
2022-08-07T00:25:52.080Z,2.00
2022-08-07T00:28:33.734Z,2.20
2022-08-07T00:31:06.238Z,2.28
2022-08-07T00:33:40.553Z,1.70
2022-08-07T00:36:08.772Z,1.92
2022-08-07T00:41:09.927Z,2.33
2022-08-07T00:44:01.649Z,1.58
2022-08-07T00:46:28.569Z,1.83
2022-08-07T00:48:55.220Z,2.33
2022-08-07T00:51:21.862Z,1.95
2022-08-07T00:53:50.750Z,2.25
2022-08-07T00:56:30.297Z,2.17
2022-08-07T00:59:01.050Z,2.28
2022-08-07T01:01:28.474Z,2.30
2022-08-07T01:04:08.632Z,2.20
2022-08-07T01:06:35.833Z,2.35
2022-08-07T01:09:03.869Z,1.63
2022-08-07T01:12:09.583Z,2.20
2022-08-07T01:14:21.346Z,1.83
2022-08-07T01:16:56.579Z,2.00
2022-08-07T01:19:26.696Z,3.05
2022-08-07T01:21:55.632Z,2.55
2022-08-07T01:24:22.983Z,2.38
2022-08-07T01:26:52.234Z,1.65
2022-08-07T01:29:20.583Z,2.55
2022-08-07T01:31:49.630Z,2.00
2022-08-07T01:34:18.606Z,1.67
2022-08-07T01:36:52.825Z,1.92
2022-08-07T01:39:26.823Z,2.25
2022-08-07T01:42:37.161Z,2.67
2022-08-07T01:44:54.028Z,2.00
2022-08-07T01:48:18.955Z,1.65
2022-08-07T01:50:09.117Z,2.20
2022-08-07T01:52:38.797Z,1.98
2022-08-07T01:55:10.926Z,2.63
2022-08-07T01:58:06.516Z,2.33
2022-08-07T02:00:49.110Z,2.15
2022-08-07T02:03:26.272Z,2.17
2022-08-07T02:06:08.935Z,2.22
2022-08-07T02:08:54.178Z,1.90
2022-08-07T02:11:30.782Z,2.83
2022-08-07T02:14:10.002Z,2.33
2022-08-07T02:16:57.606Z,2.10
2022-08-07T02:20:04.685Z,1.70
2022-08-07T02:22:13.592Z,2.90
2022-08-07T02:24:46.382Z,2.90
2022-08-07T02:27:19.108Z,2.42
2022-08-07T02:29:48.966Z,2.33
2022-08-07T02:32:23.259Z,2.28
2022-08-07T02:34:52.186Z,2.20
2022-08-07T02:37:20.669Z,2.05
2022-08-07T02:40:02.036Z,1.75
2022-08-07T02:42:37.166Z,2.05
2022-08-07T02:45:07.608Z,2.13
2022-08-07T02:47:54.050Z,2.75
2022-08-07T02:50:21.133Z,1.92
2022-08-07T02:53:03.527Z,1.70
2022-08-07T02:56:04.319Z,2.03
2022-08-07T02:58:27.265Z,2.13
2022-08-07T03:00:57.590Z,1.65
2022-08-07T03:03:29.580Z,1.85
2022-08-07T03:06:16.642Z,1.70
2022-08-07T03:08:52.811Z,1.88
2022-08-07T03:11:20.501Z,1.55
2022-08-07T03:13:57.629Z,2.05
2022-08-07T03:16:30.502Z,1.83
2022-08-07T03:18:59.298Z,1.98
2022-08-07T03:21:27.550Z,1.75
2022-08-07T03:24:17.805Z,1.60
2022-08-07T03:29:33.807Z,2.13
2022-08-07T03:32:07.270Z,1.77
2022-08-07T03:34:47.369Z,1.58
2022-08-07T03:37:32.481Z,1.27
2022-08-07T03:40:15.023Z,1.40
2022-08-07T03:42:43.719Z,1.38
2022-08-07T03:45:11.737Z,1.10
2022-08-07T03:47:47.974Z,1.20
2022-08-07T03:50:23.071Z,1.77
2022-08-07T03:52:52.062Z,1.17
2022-08-07T03:55:19.085Z,1.75
2022-08-07T03:58:35.250Z,2.28
2022-08-07T04:00:36.871Z,1.10
2022-08-07T04:03:05.244Z,1.55
2022-08-07T04:05:40.411Z,1.10
2022-08-07T04:08:11.992Z,1.67
2022-08-07T04:13:15.543Z,1.30
2022-08-07T04:15:49.036Z,1.10
2022-08-07T04:18:56.560Z,0.88
2022-08-07T04:21:02.898Z,1.50
2022-08-07T04:23:43.283Z,1.27
2022-08-07T04:26:21.663Z,1.83
2022-08-07T04:28:48.886Z,1.42
2022-08-07T04:31:20.214Z,1.27
2022-08-07T04:33:47.397Z,2.05
2022-08-07T04:36:22.736Z,2.13
2022-08-07T04:38:52.924Z,1.45
2022-08-07T04:41:19.714Z,1.80
2022-08-07T04:44:12.632Z,1.92
2022-08-07T04:58:11.157Z,2.67
2022-08-07T05:00:57.381Z,1.63
2022-08-07T05:06:19.183Z,2.15
2022-08-07T05:11:57.128Z,1.33
2022-08-07T05:14:52.323Z,1.65
2022-08-07T05:17:51.696Z,1.92
2022-08-07T05:20:15.193Z,1.70
2022-08-07T05:22:46.624Z,1.85
2022-08-07T05:25:26.114Z,1.65
2022-08-07T05:28:19.959Z,1.58
2022-08-07T05:30:48.919Z,1.75
2022-08-07T05:33:17.999Z,1.92
2022-08-07T05:35:49.991Z,1.85
2022-08-07T05:38:59.634Z,1.60
2022-08-07T05:41:12.169Z,2.10
2022-08-07T05:44:01.573Z,1.77
2022-08-07T05:46:31.509Z,1.67
2022-08-07T05:48:59.699Z,1.98
2022-08-07T05:51:31.414Z,2.03
2022-08-07T05:54:12.780Z,1.73
2022-08-07T05:56:51.320Z,1.58
2022-08-07T05:59:19.572Z,1.85
2022-08-07T06:01:50.029Z,1.55
2022-08-07T06:04:19.841Z,1.83
2022-08-07T06:06:47.848Z,1.85
2022-08-07T06:12:10.520Z,1.30
2022-08-07T06:14:39.564Z,1.42
2022-08-07T06:17:07.121Z,1.10
2022-08-07T06:19:52.298Z,1.40
2022-08-07T06:22:23.997Z,1.75
2022-08-07T06:24:58.049Z,1.67
2022-08-07T06:27:59.966Z,1.25
2022-08-07T06:30:32.279Z,1.13
2022-08-07T06:33:01.814Z,0.88
2022-08-07T06:35:30.631Z,1.20
2022-08-07T06:38:08.221Z,1.00
2022-08-07T06:40:45.886Z,1.20
2022-08-07T06:43:21.327Z,1.00
2022-08-07T06:45:49.222Z,0.88
2022-08-07T06:48:16.231Z,0.93
2022-08-07T06:50:51.893Z,1.00
2022-08-07T06:55:28.517Z,1.55
2022-08-07T06:56:15.271Z,0.70
2022-08-07T07:00:13.059Z,1.13
2022-08-07T07:01:43.822Z,1.92
2022-08-07T07:04:32.546Z,0.90
2022-08-07T07:07:02.394Z,1.00
2022-08-07T07:09:38.265Z,0.85
2022-08-07T07:15:26.133Z,0.60
2022-08-07T07:18:08.660Z,0.70
2022-08-07T07:24:08.413Z,1.35
2022-08-07T07:26:31.670Z,1.02
2022-08-07T07:29:57.124Z,0.93
2022-08-07T07:31:47.669Z,0.80
2022-08-07T07:34:21.867Z,1.00
2022-08-07T07:36:58.958Z,1.00
2022-08-07T07:39:52.048Z,1.10
2022-08-07T07:42:25.820Z,0.80
2022-08-07T07:45:02.261Z,1.40
2022-08-07T07:47:30.229Z,0.93
2022-08-07T07:50:34.296Z,1.05
2022-08-07T07:53:13.502Z,0.95
2022-08-07T07:55:54.710Z,1.33
2022-08-07T07:58:30.891Z,0.73
2022-08-07T08:02:03.942Z,0.77
2022-08-07T08:04:06.033Z,1.42
2022-08-07T08:06:35.157Z,1.33
2022-08-07T08:09:06.103Z,0.75
2022-08-07T08:11:59.507Z,0.90
2022-08-07T08:14:26.246Z,0.93
2022-08-07T08:16:55.446Z,0.82
2022-08-07T08:20:18.168Z,0.75
2022-08-07T08:22:35.053Z,1.00
2022-08-07T08:25:41.745Z,0.88
2022-08-07T08:28:17.009Z,0.63
2022-08-07T08:30:59.052Z,0.93
2022-08-07T08:33:33.152Z,0.80
2022-08-07T08:36:01.809Z,1.02
2022-08-07T08:38:40.668Z,0.80
2022-08-07T08:49:13.062Z,2.35
2022-08-07T08:52:12.760Z,0.80
2022-08-07T08:54:49.866Z,1.20
2022-08-07T08:57:30.404Z,0.90
2022-08-07T09:00:06.942Z,1.55
2022-08-07T09:02:49.517Z,1.63
2022-08-07T09:11:24.954Z,1.55
2022-08-07T09:14:30.473Z,1.42
2022-08-07T09:19:57.642Z,1.80
2022-08-07T09:25:24.644Z,0.63
2022-08-07T09:31:10.682Z,1.40
2022-08-07T09:36:46.898Z,1.38
2022-08-07T09:42:09.257Z,1.10
2022-08-07T09:47:42.712Z,1.25
2022-08-07T09:53:09.172Z,2.00
2022-08-07T10:02:03.114Z,1.33
2022-08-07T10:10:07.149Z,1.10
2022-08-07T10:16:09.689Z,0.60
2022-08-07T10:24:23.481Z,0.93
2022-08-07T10:30:06.321Z,0.98
2022-08-07T10:33:00.225Z,1.15
2022-08-07T10:35:55.461Z,1.15
2022-08-07T10:41:14.869Z,1.67
2022-08-07T10:44:16.342Z,1.52
2022-08-07T10:46:55.722Z,2.08
2022-08-07T10:52:13.857Z,1.38
2022-08-07T10:54:53.421Z,1.00
2022-08-07T11:00:39.294Z,2.25
2022-08-07T11:03:17.164Z,2.05
2022-08-07T11:08:43.591Z,0.90
2022-08-07T11:14:45.144Z,2.75
2022-08-07T11:16:52.826Z,2.72
2022-08-07T11:19:31.124Z,2.10
2022-08-07T11:25:17.030Z,0.90
2022-08-07T11:30:41.918Z,0.90
2022-08-07T11:33:59.096Z,1.20
2022-08-07T11:36:47.846Z,1.00
2022-08-07T11:42:29.964Z,2.00
2022-08-07T11:48:18.219Z,1.98
2022-08-07T12:10:05.855Z,1.90
2022-08-07T12:12:42.875Z,2.20
2022-08-07T12:15:58.034Z,1.25
2022-08-07T12:18:45.515Z,1.73
2022-08-07T12:22:37.022Z,0.93
2022-08-07T18:02:01.443Z,1.40
2022-08-07T18:12:31.497Z,0.80
2022-08-07T18:15:08.786Z,0.85
2022-08-07T18:18:46.259Z,0.95
2022-08-07T18:21:07.641Z,0.95
2022-08-07T18:35:25.494Z,0.70
2022-08-07T18:43:49.748Z,2.53
2022-08-07T18:46:33.722Z,1.45
2022-08-07T18:50:19.057Z,2.20
2022-08-07T19:00:34.339Z,0.80
2022-08-07T19:03:35.582Z,1.10
2022-08-07T19:06:16.440Z,0.68
2022-08-07T19:09:09.448Z,0.70
2022-08-07T19:12:11.092Z,1.13
2022-08-07T19:15:01.464Z,1.38
2022-08-07T19:18:11.329Z,0.90
2022-08-07T19:30:55.842Z,0.80
2022-08-07T19:32:05.445Z,1.10
2022-08-07T19:34:34.374Z,0.82
2022-08-07T19:37:17.240Z,0.55
2022-08-07T19:39:57.537Z,0.75
2022-08-07T19:42:31.323Z,0.75
2022-08-07T19:45:09.374Z,0.90
2022-08-07T19:47:41.934Z,1.40
2022-08-07T19:50:41.053Z,0.52
2022-08-07T19:53:00.866Z,1.35
2022-08-07T19:55:57.818Z,1.23
2022-08-07T19:58:27.842Z,1.05
2022-08-07T20:00:57.813Z,0.93
2022-08-07T20:03:34.850Z,0.68
2022-08-07T20:06:06.420Z,0.50
2022-08-07T20:08:50.354Z,1.05
2022-08-07T20:11:34.202Z,0.60
2022-08-07T20:14:20.892Z,0.65
2022-08-07T20:16:57.918Z,1.13
2022-08-07T20:19:48.380Z,1.42
2022-08-07T20:22:29.314Z,0.50
2022-08-07T20:25:06.131Z,0.75
2022-08-07T20:27:47.599Z,0.63
2022-08-07T20:30:21.778Z,0.93
2022-08-07T20:32:54.926Z,0.57
2022-08-07T20:35:34.259Z,0.80
2022-08-07T20:38:06.393Z,0.63
2022-08-07T20:40:40.597Z,0.80
2022-08-07T20:43:14.649Z,0.60
2022-08-07T20:46:27.745Z,0.70
2022-08-07T20:48:39.647Z,0.55
2022-08-07T20:51:27.198Z,1.35
2022-08-07T20:54:03.667Z,0.65
2022-08-07T20:56:45.999Z,1.05
2022-08-07T21:00:04.412Z,0.63
2022-08-07T21:02:23.222Z,0.73
2022-08-07T21:04:55.263Z,0.63
2022-08-07T21:07:26.408Z,0.70
2022-08-07T21:10:00.282Z,0.82
2022-08-07T21:12:31.686Z,0.93
2022-08-07T21:15:01.200Z,0.70
2022-08-07T21:18:29.419Z,1.23
2022-08-07T21:20:29.831Z,0.90
2022-08-07T21:23:07.638Z,1.15
2022-08-07T21:28:49.464Z,1.00
2022-08-07T21:34:21.295Z,1.00
2022-08-07T21:37:01.501Z,0.90
2022-08-07T21:50:14.691Z,1.92
2022-08-07T21:53:08.597Z,2.20
2022-08-07T22:01:22.462Z,1.27
2022-08-07T22:04:17.704Z,1.15
2022-08-07T22:07:01.515Z,1.15
2022-08-07T22:09:38.062Z,0.80
2022-08-07T22:12:24.651Z,1.10
2022-08-07T22:15:02.293Z,1.30
2022-08-07T22:17:47.046Z,1.25
2022-08-07T22:20:29.451Z,1.08
2022-08-07T22:23:06.360Z,1.10
2022-08-07T22:25:42.235Z,0.90
2022-08-07T22:28:30.981Z,1.00
2022-08-07T22:31:06.865Z,1.65
2022-08-07T22:33:56.253Z,1.40
2022-08-07T22:37:03.945Z,1.33
2022-08-07T22:40:05.033Z,1.67
2022-08-07T22:42:35.120Z,1.52
2022-08-07T22:45:10.937Z,1.30
2022-08-07T22:54:08.443Z,1.15
2022-08-07T23:07:51.551Z,1.55
2022-08-07T23:16:05.580Z,1.50
2022-08-07T23:19:19.459Z,1.42
